In Rescue
 
Open Full Screen Window  High Contrast Mode
October 30, 2020 12:03 AM CDT
Weather Information
Wind Direction
  ---
Wind Speed
  00 kt (0 mph)
Wind Gust
  00 kt (0 mph)
Altimeter
30.16 in
Visibility
10 SM
Temperature
-03° C
27° F
Dewpoint
-09° C
16° F
Humidity
64%
1hr Rain Fall
00.00 in.
24hr Rain Fall
00.00 in.
Sky Condition
Overcast @ 3,900 ft
VFR

METAR KFOZ 300503Z AUTO 00000KT 10SM OVC039 M03/M09 A3016 RMK AO2

FAA Disclaimer: The data displayed is for advisory purposes only and is not to be used for flight planning or operations.